createdAt,value
2018-04-01T00:02:18.316Z,96623.80
2018-04-01T00:04:45.833Z,96627.88
2018-04-01T00:07:14.064Z,96629.19
2018-04-01T00:09:41.535Z,96625.72
2018-04-01T00:12:09.012Z,96626.34
2018-04-01T00:14:37.253Z,96627.09
2018-04-01T00:17:04.716Z,96630.02
2018-04-01T00:19:32.200Z,96622.08
2018-04-01T00:21:59.733Z,96628.55
2018-04-01T00:24:27.192Z,96626.66
2018-04-01T00:26:54.772Z,96638.35
2018-04-01T00:29:23.652Z,96638.12
2018-04-01T00:31:51.120Z,96642.09
2018-04-01T00:34:20.120Z,96650.08
2018-04-01T00:36:47.593Z,96647.53
2018-04-01T00:39:15.840Z,96642.59
2018-04-01T00:41:43.343Z,96645.50
2018-04-01T00:44:10.804Z,96643.77
2018-04-01T00:46:38.281Z,96644.59
2018-04-01T00:49:05.827Z,96637.23
2018-04-01T00:51:33.300Z,96640.02
2018-04-01T00:54:00.769Z,96636.30
2018-04-01T00:56:28.308Z,96622.67
2018-04-01T00:58:55.782Z,96623.23
2018-04-01T01:01:23.248Z,96601.23
2018-04-01T01:03:50.736Z,96616.26
2018-04-01T01:06:18.979Z,96616.34
2018-04-01T01:08:46.445Z,96607.53
2018-04-01T01:11:13.949Z,96611.53
2018-04-01T01:13:41.416Z,96613.19
2018-04-01T01:16:08.884Z,96607.14
2018-04-01T01:18:36.363Z,96596.66
2018-04-01T01:21:03.826Z,96595.98
2018-04-01T01:23:31.297Z,96588.28
2018-04-01T01:25:58.776Z,96603.67
2018-04-01T01:28:27.009Z,96601.24
2018-04-01T01:30:54.492Z,96608.89
2018-04-01T01:33:21.985Z,96613.25
2018-04-01T01:35:49.454Z,96613.61
2018-04-01T01:38:16.922Z,96613.91
2018-04-01T01:40:44.404Z,96614.30
2018-04-01T01:43:11.884Z,96626.09
2018-04-01T01:45:39.356Z,96626.84
2018-04-01T01:48:07.625Z,96619.10
2018-04-01T01:50:35.857Z,96623.89
2018-04-01T01:53:03.357Z,96620.12
2018-04-01T01:55:31.609Z,96624.79
2018-04-01T01:57:59.088Z,96624.36
2018-04-01T02:00:26.561Z,96620.44
2018-04-01T02:02:54.799Z,96629.52
2018-04-01T02:05:22.284Z,96634.61
2018-04-01T02:07:50.523Z,96635.53
2018-04-01T02:10:18.026Z,96628.58
2018-04-01T02:12:46.268Z,96628.41
2018-04-01T02:15:13.748Z,96633.03
2018-04-01T02:17:41.229Z,96639.79
2018-04-01T02:20:08.705Z,96643.91
2018-04-01T02:22:36.185Z,96640.48
2018-04-01T02:25:03.687Z,96649.61
2018-04-01T02:27:31.921Z,96651.23
2018-04-01T02:29:59.447Z,96653.59
2018-04-01T02:32:26.938Z,96645.38
2018-04-01T02:34:54.409Z,96648.73
2018-04-01T02:37:21.873Z,96649.50
2018-04-01T02:39:49.357Z,96649.47
2018-04-01T02:42:17.584Z,96656.80
2018-04-01T02:44:45.050Z,96648.13
2018-04-01T02:47:14.054Z,96645.43
2018-04-01T02:49:41.526Z,96648.39
2018-04-01T02:52:09.776Z,96639.36
2018-04-01T02:54:37.384Z,96639.78
2018-04-01T02:57:04.848Z,96641.21
2018-04-01T02:59:32.317Z,96639.78
2018-04-01T03:01:59.800Z,96639.58
2018-04-01T03:04:27.260Z,96638.77
2018-04-01T03:06:54.793Z,96647.23
2018-04-01T03:09:23.038Z,96637.42
2018-04-01T03:11:51.312Z,96627.40
2018-04-01T03:14:19.540Z,96627.28
2018-04-01T03:16:47.024Z,96627.00
2018-04-01T03:19:14.484Z,96635.21
2018-04-01T03:21:42.718Z,96647.83
2018-04-01T03:24:10.195Z,96645.72
2018-04-01T03:26:37.663Z,96651.28
2018-04-01T03:29:05.120Z,96654.85
2018-04-01T03:31:32.606Z,96657.25
2018-04-01T03:34:00.920Z,96661.69
2018-04-01T03:36:28.387Z,96666.66
2018-04-01T03:38:55.876Z,96668.12
2018-04-01T03:41:23.358Z,96666.86
2018-04-01T03:43:51.584Z,96668.47
2018-04-01T03:46:19.073Z,96665.52
2018-04-01T03:48:47.332Z,96671.04
2018-04-01T03:51:15.586Z,96670.72
2018-04-01T03:53:43.065Z,96674.05
2018-04-01T03:56:10.530Z,96675.61
2018-04-01T03:58:37.999Z,96680.86
2018-04-01T04:01:06.274Z,96686.55
2018-04-01T04:03:34.497Z,96677.63
2018-04-01T04:06:01.961Z,96684.36
2018-04-01T04:08:29.440Z,96679.24
2018-04-01T04:10:56.918Z,96678.23
2018-04-01T04:13:25.176Z,96684.45
2018-04-01T04:15:52.657Z,96681.23
2018-04-01T04:18:20.884Z,96690.92
2018-04-01T04:20:48.352Z,96693.04
2018-04-01T04:23:15.841Z,96688.94
2018-04-01T04:25:43.307Z,96691.27
2018-04-01T04:28:11.541Z,96690.61
2018-04-01T04:30:39.025Z,96689.19
2018-04-01T04:33:06.489Z,96691.74
2018-04-01T04:35:34.816Z,96690.75
2018-04-01T04:38:02.297Z,96686.03
2018-04-01T04:40:29.769Z,96690.34
2018-04-01T04:42:57.237Z,96695.27
2018-04-01T04:45:24.737Z,96707.12
2018-04-01T04:47:52.191Z,96699.51
2018-04-01T04:50:19.661Z,96710.28
2018-04-01T04:52:47.148Z,96705.99
2018-04-01T04:55:14.612Z,96712.67
2018-04-01T04:57:42.072Z,96712.61
2018-04-01T05:00:09.567Z,96709.99
2018-04-01T05:02:37.035Z,96714.55
2018-04-01T05:05:04.507Z,96712.91
2018-04-01T05:07:31.977Z,96717.20
2018-04-01T05:09:59.448Z,96710.72
2018-04-01T05:12:26.913Z,96708.28
2018-04-01T05:14:54.428Z,96717.64
2018-04-01T05:17:21.896Z,96713.78
2018-04-01T05:19:49.366Z,96717.13
2018-04-01T05:22:16.847Z,96724.66
2018-04-01T05:24:44.313Z,96731.00
2018-04-01T05:27:12.541Z,96730.41
2018-04-01T05:29:40.019Z,96726.02
2018-04-01T05:32:07.480Z,96737.34
2018-04-01T05:34:34.947Z,96739.87
2018-04-01T05:37:02.428Z,96739.97
2018-04-01T05:39:30.669Z,96745.66
2018-04-01T05:41:58.136Z,96748.20
2018-04-01T05:44:25.621Z,96748.97
2018-04-01T05:46:53.892Z,96755.00
2018-04-01T05:49:22.122Z,96753.77
2018-04-01T05:51:49.609Z,96748.45
2018-04-01T05:54:17.078Z,96751.82
2018-04-01T05:56:45.306Z,96756.06
2018-04-01T05:59:12.787Z,96757.62
2018-04-01T06:01:40.317Z,96754.70
2018-04-01T06:04:07.784Z,96762.68
2018-04-01T06:06:35.272Z,96750.25
2018-04-01T06:09:02.734Z,96758.62
2018-04-01T06:11:30.973Z,96760.55
2018-04-01T06:13:58.460Z,96772.55
2018-04-01T06:16:25.933Z,96777.78
2018-04-01T06:18:54.213Z,96776.13
2018-04-01T06:21:21.662Z,96779.88
2018-04-01T06:23:49.956Z,96785.30
2018-04-01T06:26:17.425Z,96793.47
2018-04-01T06:28:44.899Z,96802.28
2018-04-01T06:31:12.377Z,96804.41
2018-04-01T06:33:39.832Z,96803.95
2018-04-01T06:36:07.329Z,96802.02
2018-04-01T06:38:35.562Z,96805.53
2018-04-01T06:41:03.044Z,96806.66
2018-04-01T06:43:30.516Z,96814.78
2018-04-01T06:45:58.752Z,96811.84
2018-04-01T06:48:26.233Z,96813.06
2018-04-01T06:50:53.737Z,96817.16
2018-04-01T06:53:21.197Z,96823.23
2018-04-01T06:55:48.696Z,96828.41
2018-04-01T06:58:16.178Z,96826.69
2018-04-01T07:00:43.642Z,96832.16
2018-04-01T07:03:11.891Z,96830.50
2018-04-01T07:05:39.364Z,96829.73
2018-04-01T07:08:06.832Z,96835.74
2018-04-01T07:10:35.128Z,96832.16
2018-04-01T07:13:02.599Z,96845.02
2018-04-01T07:15:30.080Z,96846.38
2018-04-01T07:17:57.554Z,96846.66
2018-04-01T07:20:25.038Z,96853.92
2018-04-01T07:22:53.280Z,96851.51
2018-04-01T07:25:20.745Z,96860.07
2018-04-01T07:27:48.334Z,96863.38
2018-04-01T07:30:16.562Z,96870.09
2018-04-01T07:32:44.105Z,96872.62
2018-04-01T07:35:11.592Z,96874.25
2018-04-01T07:37:39.068Z,96867.88
2018-04-01T07:40:06.532Z,96881.29
2018-04-01T07:42:34.781Z,96874.09
2018-04-01T07:45:02.256Z,96879.56
2018-04-01T07:47:29.722Z,96880.77
2018-04-01T07:49:57.975Z,96873.34
2018-04-01T07:52:25.441Z,96878.77
2018-04-01T07:54:52.934Z,96877.97
2018-04-01T07:57:20.397Z,96876.27
2018-04-01T07:59:47.872Z,96879.32
2018-04-01T08:02:15.353Z,96885.34
2018-04-01T08:04:42.821Z,96881.94
2018-04-01T08:07:10.293Z,96872.70
2018-04-01T08:09:38.556Z,96883.27
2018-04-01T08:12:06.021Z,96885.34
2018-04-01T08:14:33.486Z,96887.52
2018-04-01T08:17:01.003Z,96892.83
2018-04-01T08:19:28.468Z,96891.30
2018-04-01T08:21:55.932Z,96893.02
2018-04-01T08:24:23.413Z,96895.02
2018-04-01T08:26:50.896Z,96900.20
2018-04-01T08:29:18.361Z,96899.91
2018-04-01T08:31:45.841Z,96905.55
2018-04-01T08:34:13.325Z,96904.41
2018-04-01T08:36:40.802Z,96908.03
2018-04-01T08:39:08.289Z,96911.66
2018-04-01T08:41:35.763Z,96909.36
2018-04-01T08:44:03.249Z,96911.20
2018-04-01T08:46:30.729Z,96911.05
2018-04-01T08:48:58.230Z,96915.28
2018-04-01T08:51:26.530Z,96915.88
2018-04-01T08:53:53.996Z,96920.47
2018-04-01T08:56:21.528Z,96916.72
2018-04-01T08:58:48.995Z,96920.63
2018-04-01T09:01:16.460Z,96922.39
2018-04-01T09:03:43.955Z,96923.63
2018-04-01T09:06:11.421Z,96919.11
2018-04-01T09:08:39.657Z,96917.70
2018-04-01T09:11:07.151Z,96920.02
2018-04-01T09:13:35.381Z,96924.38
2018-04-01T09:16:02.862Z,96930.45
2018-04-01T09:18:30.344Z,96920.92
2018-04-01T09:20:57.837Z,96930.21
2018-04-01T09:23:25.389Z,96933.56
2018-04-01T09:25:52.881Z,96932.61
2018-04-01T09:28:20.355Z,96936.49
2018-04-01T09:30:47.841Z,96931.54
2018-04-01T09:33:16.076Z,96940.12
2018-04-01T09:35:43.545Z,96940.12
2018-04-01T09:38:11.033Z,96947.69
2018-04-01T09:40:39.261Z,96941.58
2018-04-01T09:43:06.725Z,96953.30
2018-04-01T09:45:34.212Z,96952.84
2018-04-01T09:48:02.445Z,96957.73
2018-04-01T09:50:29.916Z,96953.56
2018-04-01T09:52:58.904Z,96959.28
2018-04-01T09:55:26.380Z,96966.27
2018-04-01T09:57:53.868Z,96973.25
2018-04-01T10:00:26.364Z,96974.45
2018-04-01T10:02:54.632Z,96974.35
2018-04-01T10:05:22.896Z,96979.73
2018-04-01T10:07:51.920Z,96979.91
2018-04-01T10:10:20.226Z,96984.27
2018-04-01T10:12:48.485Z,96985.97
2018-04-01T10:15:16.735Z,96988.11
2018-04-01T10:17:45.013Z,96991.37
2018-04-01T10:20:13.301Z,96990.34
2018-04-01T10:22:41.524Z,96996.41
2018-04-01T10:25:09.797Z,97002.73
2018-04-01T10:27:38.046Z,96999.41
2018-04-01T10:30:06.300Z,97007.67
2018-04-01T10:32:34.568Z,97016.82
2018-04-01T10:35:02.824Z,97017.77
2018-04-01T10:37:31.095Z,97020.41
2018-04-01T10:40:00.141Z,97026.85
2018-04-01T10:42:28.429Z,97020.34
2018-04-01T10:44:56.685Z,97029.27
2018-04-01T10:47:24.944Z,97039.25
2018-04-01T10:49:53.216Z,97035.95
2018-04-01T10:52:21.476Z,97038.82
2018-04-01T10:54:48.946Z,97044.63
2018-04-01T10:57:16.445Z,97052.77
2018-04-01T10:59:43.910Z,97051.08
2018-04-01T11:02:12.147Z,97051.02
2018-04-01T11:04:39.625Z,97054.99
2018-04-01T11:07:07.887Z,97056.78
2018-04-01T11:09:35.344Z,97058.09
2018-04-01T11:12:02.824Z,97063.27
2018-04-01T11:14:30.293Z,97064.09
2018-04-01T11:16:57.824Z,97053.86
2018-04-01T11:19:26.024Z,97059.45
2018-04-01T11:21:53.508Z,97061.05
2018-04-01T11:24:21.736Z,97065.39
2018-04-01T11:26:49.209Z,97061.72
2018-04-01T11:29:16.689Z,97067.59
2018-04-01T11:31:44.917Z,97070.98
2018-04-01T11:34:12.401Z,97066.53
2018-04-01T11:36:39.881Z,97066.57
2018-04-01T11:39:08.112Z,97070.23
2018-04-01T11:41:35.580Z,97072.44
2018-04-01T11:44:03.072Z,97074.42
2018-04-01T11:46:31.313Z,97085.47
2018-04-01T11:48:58.789Z,97078.34
2018-04-01T11:51:26.273Z,97094.94
2018-04-01T11:53:54.510Z,97096.17
2018-04-01T11:56:21.976Z,97101.88
2018-04-01T11:58:49.456Z,97112.78
2018-04-01T12:01:17.692Z,97111.83
2018-04-01T12:03:45.180Z,97113.57
2018-04-01T12:06:12.654Z,97122.55
2018-04-01T12:08:40.909Z,97131.42
2018-04-01T12:11:08.393Z,97136.16
2018-04-01T12:13:35.864Z,97134.42
2018-04-01T12:16:03.352Z,97133.09
2018-04-01T12:18:30.818Z,97132.56
2018-04-01T12:20:58.284Z,97129.28
2018-04-01T12:23:26.535Z,97127.76
2018-04-01T12:25:54.000Z,97129.41
2018-04-01T12:28:21.480Z,97119.59
2018-04-01T12:30:48.969Z,97120.95
2018-04-01T12:33:16.466Z,97114.91
2018-04-01T12:35:43.946Z,97124.10
2018-04-01T12:38:11.431Z,97124.30
2018-04-01T12:40:39.656Z,97126.55
2018-04-01T12:43:07.117Z,97130.68
2018-04-01T12:45:34.598Z,97145.23
2018-04-01T12:48:02.076Z,97147.42
2018-04-01T12:50:30.405Z,97143.28
2018-04-01T12:52:57.875Z,97153.88
2018-04-01T12:55:25.369Z,97149.67
2018-04-01T12:57:53.614Z,97147.65
2018-04-01T13:00:21.080Z,97147.35
2018-04-01T13:02:48.583Z,97142.88
2018-04-01T13:05:16.117Z,97145.88
2018-04-01T13:07:44.376Z,97149.53
2018-04-01T13:10:11.853Z,97152.39
2018-04-01T13:12:40.087Z,97152.96
2018-04-01T13:15:07.560Z,97155.52
2018-04-01T13:17:35.029Z,97154.67
2018-04-01T13:20:02.517Z,97157.39
2018-04-01T13:22:29.973Z,97161.06
2018-04-01T13:24:57.441Z,97169.06
2018-04-01T13:27:24.921Z,97166.45
2018-04-01T13:29:52.400Z,97172.34
2018-04-01T13:32:19.882Z,97167.61
2018-04-01T13:34:48.156Z,97170.47
2018-04-01T13:37:16.390Z,97169.45
2018-04-01T13:39:43.848Z,97178.77
2018-04-01T13:42:11.333Z,97175.24
2018-04-01T13:44:38.798Z,97174.80
2018-04-01T13:47:06.285Z,97185.00
2018-04-01T13:49:33.776Z,97191.15
2018-04-01T13:52:01.242Z,97199.73
2018-04-01T13:54:28.709Z,97199.29
2018-04-01T13:56:56.198Z,97204.19
2018-04-01T13:59:24.432Z,97210.74
2018-04-01T14:01:51.921Z,97233.14
2018-04-01T14:04:19.392Z,97231.59
2018-04-01T14:06:47.657Z,97232.70
2018-04-01T14:09:15.975Z,97240.78
2018-04-01T14:11:43.537Z,97244.20
2018-04-01T14:14:10.998Z,97248.08
2018-04-01T14:16:38.476Z,97248.91
2018-04-01T14:19:05.961Z,97253.02
2018-04-01T14:21:33.445Z,97270.48
2018-04-01T14:24:00.913Z,97271.78
2018-04-01T14:26:28.379Z,97270.30
2018-04-01T14:28:55.877Z,97272.06
2018-04-01T14:31:23.395Z,97269.95
2018-04-01T14:33:50.824Z,97270.33
2018-04-01T14:36:18.297Z,97264.82
2018-04-01T14:38:45.769Z,97261.23
2018-04-01T14:41:13.269Z,97266.73
2018-04-01T14:43:41.516Z,97261.55
2018-04-01T14:46:08.992Z,97266.86
2018-04-01T14:48:36.457Z,97266.30
2018-04-01T14:51:04.565Z,97274.81
2018-04-01T14:53:31.419Z,97272.64
2018-04-01T14:55:58.879Z,97275.67
2018-04-01T14:58:26.407Z,97279.07
2018-04-01T15:00:53.838Z,97282.87
2018-04-01T15:03:21.325Z,97283.69
2018-04-01T15:05:49.554Z,97282.09
2018-04-01T15:08:17.035Z,97297.64
2018-04-01T15:10:44.556Z,97291.36
2018-04-01T15:13:12.015Z,97308.31
2018-04-01T15:15:39.497Z,97306.23
2018-04-01T15:18:08.472Z,97308.88
2018-04-01T15:20:35.933Z,97304.48
2018-04-01T15:23:03.428Z,97305.62
2018-04-01T15:25:30.901Z,97312.11
2018-04-01T15:27:59.157Z,97309.59
2018-04-01T15:30:26.620Z,97314.45
2018-04-01T15:32:54.882Z,97315.15
2018-04-01T15:35:22.384Z,97314.06
2018-04-01T15:37:49.854Z,97317.84
2018-04-01T15:40:17.345Z,97319.25
2018-04-01T15:42:46.319Z,97324.33
2018-04-01T15:45:13.788Z,97317.14
2018-04-01T15:47:41.277Z,97318.87
2018-04-01T15:50:09.542Z,97324.79
2018-04-01T15:52:37.934Z,97325.08
2018-04-01T15:55:06.197Z,97334.82
2018-04-01T15:57:33.659Z,97342.83
2018-04-01T16:00:01.128Z,97338.70
2018-04-01T16:02:29.368Z,97345.18
2018-04-01T16:04:57.849Z,97340.54
2018-04-01T16:07:25.331Z,97347.80
2018-04-01T16:09:52.807Z,97349.47
2018-04-01T16:12:21.040Z,97348.19
2018-04-01T16:14:48.525Z,97352.80
2018-04-01T16:17:16.765Z,97360.06
2018-04-01T16:19:44.265Z,97360.56
2018-04-01T16:22:12.510Z,97368.18
2018-04-01T16:24:39.974Z,97373.27
2018-04-01T16:27:07.472Z,97363.02
2018-04-01T16:29:34.944Z,97363.41
2018-04-01T16:32:02.468Z,97365.14
2018-04-01T16:34:30.769Z,97373.27
2018-04-01T16:36:58.288Z,97367.33
2018-04-01T16:39:25.781Z,97380.92
2018-04-01T16:41:53.271Z,97376.27
2018-04-01T16:44:20.766Z,97382.19
2018-04-01T16:46:48.377Z,97365.51
2018-04-01T16:49:15.979Z,97367.85
2018-04-01T16:51:44.317Z,97369.49
2018-04-01T16:54:11.924Z,97373.38
2018-04-01T16:56:40.199Z,97380.97
2018-04-01T16:59:07.709Z,97381.80
2018-04-01T17:01:35.183Z,97389.88
2018-04-01T17:04:02.669Z,97386.50
2018-04-01T17:06:30.180Z,97383.31
2018-04-01T17:08:57.713Z,97382.53
2018-04-01T17:11:25.970Z,97387.55
2018-04-01T17:13:54.228Z,97390.86
2018-04-01T17:16:22.493Z,97386.16
2018-04-01T17:18:49.978Z,97383.20
2018-04-01T17:21:17.491Z,97384.59
2018-04-01T17:23:44.957Z,97388.47
2018-04-01T17:26:12.445Z,97393.14
2018-04-01T17:28:39.961Z,97403.77
2018-04-01T17:31:07.461Z,97407.55
2018-04-01T17:33:35.729Z,97409.66
2018-04-01T17:36:03.362Z,97413.43
2018-04-01T17:38:30.877Z,97417.31
2018-04-01T17:40:59.171Z,97420.35
2018-04-01T17:43:26.911Z,97427.13
2018-04-01T17:45:55.219Z,97428.39
2018-04-01T17:48:22.714Z,97432.58
2018-04-01T17:50:50.241Z,97434.30
2018-04-01T17:53:17.704Z,97440.23
2018-04-01T17:55:45.268Z,97438.52
2018-04-01T17:58:13.109Z,97444.00
2018-04-01T18:00:40.695Z,97447.52
2018-04-01T18:03:08.277Z,97454.32
2018-04-01T18:05:35.847Z,97451.34
2018-04-01T18:08:04.473Z,97462.36
2018-04-01T18:10:32.225Z,97447.45
2018-04-01T18:12:59.738Z,97447.83
2018-04-01T18:15:27.267Z,97451.23
2018-04-01T18:17:55.009Z,97453.45
2018-04-01T18:20:22.666Z,97452.55
2018-04-01T18:22:50.249Z,97458.50
2018-04-01T18:25:17.771Z,97455.92
2018-04-01T18:27:45.343Z,97458.52
2018-04-01T18:30:12.890Z,97467.88
2018-04-01T18:32:40.900Z,97469.97
2018-04-01T18:35:08.837Z,97470.39
2018-04-01T18:37:36.467Z,97483.91
2018-04-01T18:40:04.161Z,97481.69
2018-04-01T18:42:31.777Z,97493.63
2018-04-01T18:44:59.380Z,97498.72
2018-04-01T18:47:27.153Z,97504.65
2018-04-01T18:49:55.560Z,97510.14
2018-04-01T18:52:23.120Z,97512.30
2018-04-01T18:54:50.806Z,97511.42
2018-04-01T18:57:18.847Z,97514.84
2018-04-01T18:59:47.723Z,97514.45
2018-04-01T19:02:15.893Z,97519.05
2018-04-01T19:04:43.700Z,97519.39
2018-04-01T19:07:11.541Z,97517.25
2018-04-01T19:09:40.574Z,97518.23
2018-04-01T19:12:10.091Z,97527.56
2018-04-01T19:14:38.965Z,97526.73
2018-04-01T19:17:09.530Z,97536.05
2018-04-01T19:19:39.460Z,97533.92
2018-04-01T19:22:10.974Z,97537.70
2018-04-01T19:24:40.819Z,97541.51
2018-04-01T19:27:10.629Z,97539.50
2018-04-01T19:29:40.461Z,97539.43
2018-04-01T19:32:10.371Z,97547.09
2018-04-01T19:34:41.277Z,97545.31
2018-04-01T19:37:11.099Z,97550.86
2018-04-01T19:39:40.980Z,97550.46
2018-04-01T19:42:11.549Z,97560.70
2018-04-01T19:44:41.351Z,97561.52
2018-04-01T19:47:11.173Z,97560.76
2018-04-01T19:49:41.280Z,97568.94
2018-04-01T19:52:11.218Z,97560.02
2018-04-01T19:54:41.353Z,97563.39
2018-04-01T19:57:11.183Z,97566.39
2018-04-01T19:59:41.460Z,97574.04
2018-04-01T20:02:11.220Z,97574.87
2018-04-01T20:04:41.181Z,97571.92
2018-04-01T20:07:11.145Z,97568.52
2018-04-01T20:09:41.062Z,97570.61
2018-04-01T20:12:10.981Z,97571.90
2018-04-01T20:14:40.824Z,97573.61
2018-04-01T20:17:11.465Z,97570.20
2018-04-01T20:19:41.243Z,97569.77
2018-04-01T20:22:11.656Z,97574.89
2018-04-01T20:24:41.592Z,97581.67
2018-04-01T20:27:11.486Z,97587.53
2018-04-01T20:29:41.661Z,97592.55
2018-04-01T20:32:11.524Z,97597.24
2018-04-01T20:34:41.531Z,97599.25
2018-04-01T20:37:11.449Z,97599.73
2018-04-01T20:39:41.543Z,97617.81
2018-04-01T20:42:12.515Z,97608.78
2018-04-01T20:44:42.415Z,97616.07
2018-04-01T20:47:12.157Z,97619.94
2018-04-01T20:49:41.974Z,97619.47
2018-04-01T20:52:11.811Z,97616.77
2018-04-01T20:54:41.665Z,97617.34
2018-04-01T20:57:11.617Z,97614.11
2018-04-01T20:59:41.689Z,97622.71
2018-04-01T21:02:12.338Z,97633.51
2018-04-01T21:04:42.221Z,97632.77
2018-04-01T21:07:13.431Z,97627.07
2018-04-01T21:09:43.392Z,97635.44
2018-04-01T21:12:13.752Z,97633.48
2018-04-01T21:14:43.542Z,97634.77
2018-04-01T21:17:13.420Z,97642.65
2018-04-01T21:19:44.013Z,97638.59
2018-04-01T21:22:13.446Z,97636.32
2018-04-01T21:24:43.299Z,97636.69
2018-04-01T21:27:13.895Z,97635.39
2018-04-01T21:29:44.575Z,97631.20
2018-04-01T21:32:14.092Z,97630.80
2018-04-01T21:34:44.347Z,97629.09
2018-04-01T21:37:14.492Z,97630.66
2018-04-01T21:39:45.418Z,97637.41
2018-04-01T21:42:14.969Z,97635.31
2018-04-01T21:44:44.838Z,97651.59
2018-04-01T21:47:14.778Z,97652.78
2018-04-01T21:49:44.465Z,97650.62
2018-04-01T21:52:13.067Z,97651.16
2018-04-01T21:54:41.862Z,97659.50
2018-04-01T21:57:10.313Z,97656.36
2018-04-01T21:59:39.344Z,97651.31
2018-04-01T22:02:07.692Z,97653.08
2018-04-01T22:04:35.953Z,97657.28
2018-04-01T22:07:05.055Z,97653.82
2018-04-01T22:09:34.078Z,97667.13
2018-04-01T22:12:02.353Z,97665.50
2018-04-01T22:14:30.641Z,97666.80
2018-04-01T22:16:58.912Z,97663.77
2018-04-01T22:19:27.200Z,97663.34
2018-04-01T22:21:55.459Z,97659.22
2018-04-01T22:24:23.737Z,97660.58
2018-04-01T22:26:52.040Z,97656.41
2018-04-01T22:29:20.312Z,97656.92
2018-04-01T22:31:48.571Z,97649.23
2018-04-01T22:34:16.897Z,97645.09
2018-04-01T22:36:45.149Z,97647.66
2018-04-01T22:39:13.412Z,97645.62
2018-04-01T22:41:41.692Z,97649.45
2018-04-01T22:44:09.959Z,97646.48
2018-04-01T22:46:38.232Z,97649.80
2018-04-01T22:49:06.507Z,97645.91
2018-04-01T22:51:34.785Z,97649.74
2018-04-01T22:54:03.160Z,97651.84
2018-04-01T22:56:31.436Z,97648.75
2018-04-01T22:58:59.721Z,97650.05
2018-04-01T23:01:27.989Z,97649.17
2018-04-01T23:03:56.265Z,97647.33
2018-04-01T23:06:24.555Z,97653.54
2018-04-01T23:08:52.818Z,97654.73
2018-04-01T23:11:21.092Z,97652.20
2018-04-01T23:13:49.391Z,97663.53
2018-04-01T23:16:17.665Z,97657.04
2018-04-01T23:18:45.939Z,97661.28
2018-04-01T23:21:14.240Z,97655.45
2018-04-01T23:23:43.283Z,97655.48
2018-04-01T23:26:11.557Z,97653.87
2018-04-01T23:28:39.838Z,97648.08
2018-04-01T23:31:08.112Z,97651.05
2018-04-01T23:33:36.372Z,97651.84
2018-04-01T23:36:04.657Z,97647.70
2018-04-01T23:38:32.908Z,97645.24
2018-04-01T23:41:01.951Z,97653.28
2018-04-01T23:43:30.248Z,97654.00
2018-04-01T23:45:58.597Z,97649.39
2018-04-01T23:48:26.888Z,97655.28
2018-04-01T23:50:55.176Z,97652.14
2018-04-01T23:53:23.439Z,97650.54
2018-04-01T23:55:51.708Z,97653.37
2018-04-01T23:58:19.983Z,97650.66
